Time;durP1;ratioP1;P1;durP2;ratioP2;P2;SDS_P1;SDS_P2;PMS_P1;PMS_P2;Temp;Humidity;BMP_temperature;BMP_pressure;BME280_temperature;BME280_humidity;BME280_pressure;Samples;Min_cycle;Max_cycle;Signal;HPM_P1;HPM_P2
2021/06/27 00:01:14;;;;;;;31.05;13.95;;;18.40;99.90;;;;;;4997893;28;20494;-77
2021/06/27 00:03:40;;;;;;;26.80;13.63;;;18.40;99.90;;;;;;5004908;28;20029;-78
2021/06/27 00:06:06;;;;;;;28.92;13.00;;;18.30;99.90;;;;;;5016884;28;20136;-78
2021/06/27 00:08:37;;;;;;;30.10;13.43;;;18.30;99.90;;;;;;4999344;28;20029;-78
2021/06/27 00:11:07;;;;;;;29.17;13.80;;;18.20;99.90;;;;;;5000607;28;20033;-78
2021/06/27 00:13:34;;;;;;;29.35;13.82;;;18.20;99.90;;;;;;4998508;28;20026;-78
2021/06/27 00:16:00;;;;;;;26.08;13.35;;;18.40;99.90;;;;;;4982651;28;20026;-78
2021/06/27 00:18:27;;;;;;;25.63;13.88;;;18.40;99.90;;;;;;4998351;28;20466;-78
2021/06/27 00:20:57;;;;;;;30.92;15.85;;;18.20;99.90;;;;;;4998494;28;20046;-78
2021/06/27 00:23:26;;;;;;;29.00;13.88;;;18.20;99.90;;;;;;4998590;28;20544;-78
2021/06/27 00:25:52;;;;;;;;;;;18.10;99.90;;;;;;5000130;28;20025;-78
2021/06/27 00:28:18;;;;;;;23.83;13.02;;;18.40;99.90;;;;;;5004457;28;19909;-78
2021/06/27 00:30:45;;;;;;;24.90;13.57;;;18.10;99.90;;;;;;4982399;28;20390;-78
2021/06/27 00:33:12;;;;;;;30.52;13.88;;;18.10;99.90;;;;;;4981192;28;20483;-78
2021/06/27 00:35:38;;;;;;;28.25;13.55;;;18.10;99.90;;;;;;5003341;28;20026;-79
2021/06/27 00:38:05;;;;;;;28.40;13.95;;;18.10;99.90;;;;;;4999234;28;20036;-78
2021/06/27 00:40:33;;;;;;;25.02;12.85;;;18.10;99.90;;;;;;5017621;28;20022;-78
2021/06/27 00:42:59;;;;;;;22.73;12.45;;;18.10;99.90;;;;;;5000809;28;20018;-78
2021/06/27 00:45:29;;;;;;;23.55;12.93;;;18.10;99.90;;;;;;4999903;28;20112;-75
2021/06/27 00:47:58;;;;;;;30.90;14.75;;;18.00;99.90;;;;;;4995923;28;20121;-75
2021/06/27 00:50:31;;;;;;;29.27;13.73;;;18.10;99.90;;;;;;5001070;28;20025;-75
2021/06/27 00:52:58;;;;;;;26.40;13.95;;;18.10;99.90;;;;;;5013863;28;20104;-75
2021/06/27 00:55:25;;;;;;;27.25;13.10;;;18.00;99.90;;;;;;5013776;28;20117;-75
2021/06/27 00:57:53;;;;;;;28.38;13.00;;;18.00;99.90;;;;;;5012893;28;20058;-76
2021/06/27 01:00:25;;;;;;;30.00;13.35;;;18.00;99.90;;;;;;5013715;28;20365;-75
2021/06/27 01:02:50;;;;;;;29.50;14.30;;;18.00;99.90;;;;;;5013713;28;20049;-75
2021/06/27 01:05:20;;;;;;;29.05;13.32;;;18.00;99.90;;;;;;4995708;28;20027;-75
2021/06/27 01:07:46;;;;;;;22.83;12.60;;;18.00;99.90;;;;;;4994745;28;20479;-74
2021/06/27 01:10:13;;;;;;;26.20;13.43;;;18.00;99.90;;;;;;5011666;28;20045;-75
2021/06/27 01:12:39;;;;;;;26.63;14.00;;;18.00;99.90;;;;;;5011633;28;20022;-75
2021/06/27 01:15:07;;;;;;;27.33;13.43;;;18.00;99.90;;;;;;5002752;28;20502;-75
2021/06/27 01:17:34;;;;;;;29.13;14.32;;;17.90;99.90;;;;;;5008076;28;20054;-75
2021/06/27 01:20:00;;;;;;;26.45;14.13;;;17.90;99.90;;;;;;4992280;28;20034;-75
2021/06/27 01:22:26;;;;;;;30.60;14.13;;;17.90;99.90;;;;;;4976770;28;20018;-75
2021/06/27 01:24:52;;;;;;;29.05;13.57;;;17.80;99.90;;;;;;4994472;28;20484;-75
2021/06/27 01:27:18;;;;;;;23.83;13.40;;;17.80;99.90;;;;;;5003788;28;20033;-75
2021/06/27 01:29:44;;;;;;;27.58;14.27;;;17.80;99.90;;;;;;4968012;28;20407;-76
2021/06/27 01:32:11;;;;;;;27.10;12.85;;;17.80;99.90;;;;;;4995969;28;20053;-76
2021/06/27 01:34:38;;;;;;;30.45;13.35;;;17.90;99.90;;;;;;4983470;28;20022;-74
2021/06/27 01:37:04;;;;;;;26.50;13.13;;;17.90;99.90;;;;;;5014979;28;20026;-75
2021/06/27 01:39:30;;;;;;;27.63;14.20;;;17.90;99.90;;;;;;5016967;28;20026;-75
2021/06/27 01:41:56;;;;;;;26.25;14.40;;;17.90;99.90;;;;;;4999887;28;20099;-76
2021/06/27 01:44:25;;;;;;;27.90;13.57;;;17.90;99.90;;;;;;5000039;28;20112;-77
2021/06/27 01:46:56;;;;;;;27.17;14.18;;;18.00;99.90;;;;;;5009111;28;20105;-77
2021/06/27 01:49:22;;;;;;;26.25;13.20;;;18.00;99.90;;;;;;4997431;28;20462;-77
2021/06/27 01:51:47;;;;;;;29.80;14.85;;;17.90;99.90;;;;;;4996379;28;20025;-77
2021/06/27 01:54:13;;;;;;;27.77;14.02;;;18.00;99.90;;;;;;5001595;28;20129;-76
2021/06/27 01:56:39;;;;;;;28.27;13.65;;;18.00;99.90;;;;;;5007582;28;20510;-76
2021/06/27 01:59:05;;;;;;;27.75;13.60;;;18.00;99.90;;;;;;4997252;28;20539;-77
2021/06/27 02:01:34;;;;;;;26.23;13.80;;;18.00;99.90;;;;;;4997528;28;20506;-77
2021/06/27 02:03:59;;;;;;;;;;;17.90;99.90;;;;;;4997642;28;20101;-77
2021/06/27 02:06:27;;;;;;;26.10;13.65;;;18.40;99.90;;;;;;4998289;28;19972;-77
2021/06/27 02:08:53;;;;;;;27.92;14.55;;;17.90;99.90;;;;;;4996890;28;20030;-77
2021/06/27 02:11:23;;;;;;;34.15;15.23;;;17.90;99.90;;;;;;4997001;28;20057;-77
2021/06/27 02:13:50;;;;;;;25.88;13.32;;;17.80;99.90;;;;;;4995404;28;20029;-75
2021/06/27 02:16:16;;;;;;;29.13;14.70;;;17.90;99.90;;;;;;5016921;28;20049;-76
2021/06/27 02:18:49;;;;;;;28.85;15.05;;;17.80;99.90;;;;;;5015838;28;20018;-75
2021/06/27 02:21:24;;;;;;;28.08;14.90;;;17.80;99.90;;;;;;4981948;28;20018;-75
2021/06/27 02:23:50;;;;;;;29.50;15.40;;;17.70;99.90;;;;;;5016426;28;20030;-75
2021/06/27 02:26:17;;;;;;;27.85;14.40;;;17.70;99.90;;;;;;5016559;28;20030;-75
2021/06/27 02:28:45;;;;;;;30.80;15.52;;;17.70;99.90;;;;;;5016299;28;20048;-75
2021/06/27 02:31:10;;;;;;;27.60;15.30;;;17.60;99.90;;;;;;5016501;28;20034;-75
2021/06/27 02:33:37;;;;;;;29.02;14.52;;;17.70;99.90;;;;;;5016593;28;20064;-75
2021/06/27 02:36:04;;;;;;;31.45;15.30;;;17.60;99.90;;;;;;4997729;28;20056;-76
2021/06/27 02:38:29;;;;;;;29.08;15.88;;;17.60;99.90;;;;;;4996514;28;20018;-76
2021/06/27 02:40:55;;;;;;;30.95;15.65;;;17.60;99.90;;;;;;4980302;28;20065;-76
2021/06/27 02:43:22;;;;;;;29.30;15.75;;;17.60;99.90;;;;;;4996656;28;20034;-75
2021/06/27 02:45:48;;;;;;;29.70;15.93;;;17.60;99.90;;;;;;4996481;28;20034;-75
2021/06/27 02:48:14;;;;;;;33.67;16.00;;;17.50;99.90;;;;;;4996280;28;20048;-75
2021/06/27 02:50:41;;;;;;;30.88;16.45;;;17.50;99.90;;;;;;4996483;28;20030;-75
2021/06/27 02:53:09;;;;;;;34.75;17.13;;;17.60;99.90;;;;;;4996441;28;20542;-75
2021/06/27 02:55:36;;;;;;;32.55;16.25;;;17.60;99.90;;;;;;4996242;28;20048;-75
2021/06/27 02:58:02;;;;;;;32.72;16.50;;;17.60;99.90;;;;;;4978808;28;20030;-75
2021/06/27 03:00:29;;;;;;;33.10;17.20;;;17.60;99.90;;;;;;4996182;28;20031;-75
2021/06/27 03:02:59;;;;;;;34.30;16.88;;;17.70;99.90;;;;;;4996274;28;20011;-75
2021/06/27 03:05:26;;;;;;;37.05;16.85;;;17.70;99.90;;;;;;5003985;28;20048;-77
2021/06/27 03:07:52;;;;;;;30.23;16.67;;;17.70;99.90;;;;;;4998102;28;20079;-77
2021/06/27 03:10:19;;;;;;;33.42;17.42;;;17.70;99.90;;;;;;5000679;28;20037;-77
2021/06/27 03:12:50;;;;;;;33.55;17.20;;;17.70;99.90;;;;;;4978620;28;20034;-77
2021/06/27 03:15:18;;;;;;;36.00;17.67;;;17.70;99.90;;;;;;5001303;28;20422;-77
2021/06/27 03:17:45;;;;;;;34.80;17.45;;;17.70;99.90;;;;;;5016051;28;20483;-77
2021/06/27 03:20:14;;;;;;;38.35;17.45;;;17.70;99.90;;;;;;4997455;28;20476;-77
2021/06/27 03:22:40;;;;;;;40.20;18.15;;;17.70;99.90;;;;;;4997783;28;20026;-77
2021/06/27 03:25:09;;;;;;;39.30;18.65;;;17.70;99.90;;;;;;5011587;28;20412;-77
2021/06/27 03:27:36;;;;;;;33.63;18.13;;;17.70;99.90;;;;;;5009933;28;20053;-77
2021/06/27 03:30:02;;;;;;;35.42;18.23;;;17.70;99.90;;;;;;4987430;28;20022;-77
2021/06/27 03:32:27;;;;;;;32.60;16.83;;;17.70;99.90;;;;;;5015522;28;20113;-77
2021/06/27 03:34:53;;;;;;;32.42;17.45;;;17.70;99.90;;;;;;4984168;28;20105;-77
2021/06/27 03:37:19;;;;;;;40.78;18.58;;;17.70;99.90;;;;;;5000004;28;20436;-77
2021/06/27 03:39:44;;;;;;;36.75;18.30;;;17.70;99.90;;;;;;5015173;28;20034;-77
2021/06/27 03:42:10;;;;;;;33.60;16.83;;;17.70;99.90;;;;;;5014674;28;20024;-77
2021/06/27 03:44:36;;;;;;;35.75;18.25;;;17.70;99.90;;;;;;5014744;28;20113;-77
2021/06/27 03:47:02;;;;;;;33.22;16.88;;;17.60;99.90;;;;;;4978392;28;20076;-77
2021/06/27 03:49:28;;;;;;;34.97;17.95;;;17.60;99.90;;;;;;4995368;28;20031;-78
2021/06/27 03:51:53;;;;;;;36.92;18.02;;;17.60;99.90;;;;;;5000237;28;20036;-78
2021/06/27 03:54:19;;;;;;;34.78;17.67;;;17.60;99.90;;;;;;4997959;28;20037;-78
2021/06/27 03:56:45;;;;;;;39.80;18.88;;;17.60;99.90;;;;;;5014206;28;20101;-78
2021/06/27 03:59:10;;;;;;;33.95;18.33;;;17.50;99.90;;;;;;5015850;28;20108;-79
2021/06/27 04:01:36;;;;;;;35.70;17.95;;;17.50;99.90;;;;;;4998070;28;20068;-79
2021/06/27 04:04:03;;;;;;;33.20;16.40;;;17.60;99.90;;;;;;5016249;28;20033;-78
2021/06/27 04:06:29;;;;;;;38.65;17.50;;;17.50;99.90;;;;;;5015295;28;20026;-78
2021/06/27 04:08:54;;;;;;;36.53;17.65;;;17.50;99.90;;;;;;5015534;28;20438;-78
2021/06/27 04:11:20;;;;;;;34.90;17.75;;;17.50;99.90;;;;;;4998108;28;20030;-78
2021/06/27 04:13:46;;;;;;;32.65;17.30;;;17.50;99.90;;;;;;5016938;28;20514;-78
2021/06/27 04:16:12;;;;;;;38.35;18.05;;;17.60;99.90;;;;;;4999611;28;20030;-79
2021/06/27 04:18:38;;;;;;;33.53;17.10;;;17.60;99.90;;;;;;5012487;28;20033;-79
2021/06/27 04:21:05;;;;;;;34.03;16.75;;;17.50;99.90;;;;;;4998430;28;20394;-79
2021/06/27 04:23:37;;;;;;;37.40;17.70;;;17.70;99.90;;;;;;4999213;28;20019;-80
2021/06/27 04:26:03;;;;;;;35.55;17.83;;;17.70;99.90;;;;;;4998577;28;20149;-80
2021/06/27 04:28:29;;;;;;;34.45;16.92;;;17.80;99.90;;;;;;4996375;28;20026;-78
2021/06/27 04:30:55;;;;;;;34.90;17.35;;;17.80;99.90;;;;;;4984950;28;20030;-77
2021/06/27 04:33:21;;;;;;;35.75;18.00;;;17.90;99.90;;;;;;5014241;28;20032;-77
2021/06/27 04:35:46;;;;;;;38.35;17.88;;;17.90;99.90;;;;;;5006539;28;20030;-77
2021/06/27 04:38:16;;;;;;;30.85;15.18;;;18.00;99.90;;;;;;4994698;28;20018;-78
2021/06/27 04:40:41;;;;;;;33.20;17.10;;;18.00;99.90;;;;;;4994345;28;20483;-78
2021/06/27 04:43:07;;;;;;;31.27;15.95;;;18.10;99.90;;;;;;4994968;28;20033;-78
2021/06/27 04:45:34;;;;;;;31.85;16.52;;;18.20;99.90;;;;;;4977049;28;20030;-78
2021/06/27 04:48:00;;;;;;;30.73;16.38;;;18.40;99.90;;;;;;4994507;28;20037;-77
2021/06/27 04:50:26;;;;;;;33.53;15.93;;;18.50;99.90;;;;;;5001108;28;20040;-76
2021/06/27 04:52:52;;;;;;;30.70;15.57;;;18.70;99.90;;;;;;5013687;28;20085;-76
2021/06/27 04:55:19;;;;;;;31.95;16.02;;;18.80;99.90;;;;;;5014151;28;20026;-74
2021/06/27 04:57:45;;;;;;;31.35;15.70;;;19.00;99.90;;;;;;4996056;28;20029;-74
2021/06/27 05:00:11;;;;;;;28.05;15.32;;;19.10;99.90;;;;;;5013964;28;20014;-74
2021/06/27 05:02:37;;;;;;;32.08;15.30;;;19.20;99.90;;;;;;5013614;28;20512;-74
2021/06/27 05:05:04;;;;;;;27.23;14.13;;;19.40;99.90;;;;;;4996101;28;20057;-74
2021/06/27 05:07:30;;;;;;;31.88;14.50;;;19.50;99.90;;;;;;5013653;28;20026;-75
2021/06/27 05:09:56;;;;;;;27.52;14.25;;;19.60;99.90;;;;;;5012716;28;20165;-75
2021/06/27 05:12:23;;;;;;;23.45;14.13;;;19.60;99.90;;;;;;5014093;28;20010;-75
2021/06/27 05:14:49;;;;;;;27.40;13.80;;;19.60;99.90;;;;;;5013609;28;20057;-75
2021/06/27 05:17:14;;;;;;;21.88;12.35;;;19.60;99.90;;;;;;5013996;28;20068;-75
2021/06/27 05:19:40;;;;;;;29.55;14.52;;;19.50;99.90;;;;;;5013423;28;20061;-75
2021/06/27 05:22:05;;;;;;;25.25;13.32;;;19.60;99.90;;;;;;4996253;28;20060;-75
2021/06/27 05:24:31;;;;;;;27.83;13.88;;;19.60;99.90;;;;;;4995851;28;20026;-75
2021/06/27 05:26:57;;;;;;;22.88;13.75;;;19.60;99.90;;;;;;5013466;28;20045;-75
2021/06/27 05:29:22;;;;;;;22.92;13.00;;;19.60;99.90;;;;;;5013989;28;20022;-75
2021/06/27 05:31:48;;;;;;;23.90;13.65;;;19.60;99.90;;;;;;4995870;28;20041;-75
2021/06/27 05:34:13;;;;;;;22.58;13.35;;;19.60;99.90;;;;;;4995796;28;20026;-75
2021/06/27 05:36:39;;;;;;;25.80;13.70;;;19.60;99.90;;;;;;5013626;28;20512;-75
2021/06/27 05:39:06;;;;;;;20.35;12.18;;;19.70;99.90;;;;;;5002553;28;20038;-75
2021/06/27 05:41:33;;;;;;;22.48;11.68;;;19.70;99.90;;;;;;4993893;28;20022;-76
2021/06/27 05:43:58;;;;;;;22.42;12.50;;;19.60;99.90;;;;;;4993655;28;20097;-75
2021/06/27 05:46:24;;;;;;;21.38;11.90;;;19.90;99.90;;;;;;4993712;28;20531;-75
2021/06/27 05:48:49;;;;;;;22.20;11.88;;;19.90;99.90;;;;;;4995855;28;20065;-76
2021/06/27 05:51:15;;;;;;;19.42;10.88;;;20.00;99.90;;;;;;4995542;28;20025;-76
2021/06/27 05:53:41;;;;;;;20.48;10.57;;;20.10;99.90;;;;;;5013218;28;20021;-76
2021/06/27 05:56:09;;;;;;;20.77;11.10;;;20.10;99.90;;;;;;5012740;28;20021;-74
2021/06/27 05:58:42;;;;;;;19.88;11.30;;;20.20;99.90;;;;;;5013181;28;20018;-74
2021/06/27 06:01:10;;;;;;;19.35;11.00;;;20.10;99.90;;;;;;5013162;28;20382;-74
2021/06/27 06:03:36;;;;;;;19.33;10.50;;;20.20;99.90;;;;;;4995654;28;20033;-74
2021/06/27 06:06:03;;;;;;;19.48;10.73;;;20.20;99.90;;;;;;4995532;28;20065;-75
2021/06/27 06:08:29;;;;;;;19.88;10.05;;;20.30;99.90;;;;;;4995475;28;20022;-76
2021/06/27 06:10:55;;;;;;;18.13;10.25;;;20.40;99.90;;;;;;5013018;28;20029;-76
2021/06/27 06:13:21;;;;;;;17.92;10.82;;;20.50;99.90;;;;;;5002263;28;20093;-75
2021/06/27 06:15:47;;;;;;;19.85;10.45;;;20.60;99.90;;;;;;4993394;28;20026;-75
2021/06/27 06:18:13;;;;;;;18.90;9.23;;;20.70;99.90;;;;;;4975924;28;20030;-75
2021/06/27 06:20:38;;;;;;;19.98;10.57;;;20.70;99.90;;;;;;4994360;28;20372;-76
2021/06/27 06:23:04;;;;;;;20.98;10.15;;;20.80;99.90;;;;;;4996833;28;20023;-76
2021/06/27 06:25:29;;;;;;;18.15;10.73;;;20.80;99.90;;;;;;4997350;28;20073;-75
2021/06/27 06:27:55;;;;;;;20.35;10.68;;;20.70;99.90;;;;;;4997142;28;20519;-75
2021/06/27 06:30:21;;;;;;;20.08;10.60;;;20.80;99.90;;;;;;4979211;28;20034;-75
2021/06/27 06:32:46;;;;;;;16.42;10.68;;;20.70;99.90;;;;;;4979369;28;20019;-75
2021/06/27 06:35:12;;;;;;;17.42;9.40;;;20.80;99.90;;;;;;4996695;28;20065;-76
2021/06/27 06:37:37;;;;;;;17.33;9.60;;;20.80;99.90;;;;;;4996788;28;20026;-75
2021/06/27 06:40:07;;;;;;;17.73;9.90;;;20.90;99.90;;;;;;4996512;28;20023;-75
2021/06/27 06:42:33;;;;;;;18.27;10.52;;;20.90;99.90;;;;;;4996411;28;20022;-76
2021/06/27 06:44:59;;;;;;;19.70;11.32;;;20.90;99.90;;;;;;4979083;28;20015;-75
2021/06/27 06:47:24;;;;;;;17.92;9.55;;;20.90;99.90;;;;;;5017403;23;20515;-77
2021/06/27 06:49:50;;;;;;;19.17;9.95;;;20.90;99.90;;;;;;5037985;28;20021;-77
2021/06/27 06:52:15;;;;;;;18.92;10.25;;;20.90;99.90;;;;;;5056112;28;20453;-77
2021/06/27 06:54:41;;;;;;;19.05;10.13;;;20.90;99.90;;;;;;5056132;28;20028;-77
2021/06/27 06:57:07;;;;;;;18.65;9.80;;;21.00;99.90;;;;;;5055706;28;20393;-78
2021/06/27 06:59:32;;;;;;;16.83;9.55;;;21.00;99.90;;;;;;5037718;28;20013;-77
2021/06/27 07:01:58;;;;;;;20.45;9.18;;;21.10;99.90;;;;;;5037988;28;20456;-78
2021/06/27 07:04:24;;;;;;;18.40;9.23;;;21.20;99.90;;;;;;5055910;28;20079;-78
2021/06/27 07:06:50;;;;;;;19.88;9.27;;;21.30;99.90;;;;;;5037594;28;20120;-77
2021/06/27 07:09:15;;;;;;;15.50;9.30;;;21.40;99.90;;;;;;5037525;28;20029;-78
2021/06/27 07:11:41;;;;;;;14.77;8.50;;;21.50;99.90;;;;;;5037433;28;20025;-78
2021/06/27 07:14:07;;;;;;;16.90;8.98;;;21.60;99.90;;;;;;5037494;28;20033;-78
2021/06/27 07:16:33;;;;;;;16.90;9.32;;;21.70;99.90;;;;;;5055096;28;20025;-77
2021/06/27 07:18:58;;;;;;;17.85;9.23;;;21.80;99.90;;;;;;5055079;28;20025;-77
2021/06/27 07:21:26;;;;;;;16.02;8.32;;;21.90;99.90;;;;;;5055751;28;20376;-77
2021/06/27 07:23:52;;;;;;;14.77;8.52;;;22.00;99.90;;;;;;5055362;28;20385;-77
2021/06/27 07:26:18;;;;;;;16.10;9.27;;;22.00;99.90;;;;;;5037188;28;20025;-77
2021/06/27 07:28:43;;;;;;;16.52;9.07;;;22.10;99.90;;;;;;5055022;28;20029;-77
2021/06/27 07:31:09;;;;;;;14.98;8.50;;;22.30;99.90;;;;;;5054910;28;20055;-77
2021/06/27 07:33:36;;;;;;;16.55;7.65;;;22.40;99.90;;;;;;5054107;28;20478;-77
2021/06/27 07:36:01;;;;;;;16.40;8.00;;;22.50;99.90;;;;;;5046687;28;20155;-78
2021/06/27 07:38:27;;;;;;;15.95;8.98;;;22.60;99.90;;;;;;5045181;28;20476;-77
2021/06/27 07:40:53;;;;;;;15.38;8.73;;;22.70;99.90;;;;;;5054283;28;20143;-77
2021/06/27 07:43:18;;;;;;;15.90;7.85;;;22.80;99.90;;;;;;5055070;28;20021;-77
2021/06/27 07:45:45;;;;;;;11.75;7.60;;;22.80;99.90;;;;;;5057027;28;20086;-78
2021/06/27 07:48:11;;;;;;;11.75;7.10;;;22.90;99.90;;;;;;5039623;28;20037;-78
2021/06/27 07:50:38;;;;;;;13.60;7.55;;;23.00;99.90;;;;;;5034339;28;20516;-78
2021/06/27 07:53:04;;;;;;;12.93;7.35;;;23.10;99.90;;;;;;5039801;28;20031;-78
2021/06/27 07:55:30;;;;;;;14.23;7.53;;;23.10;99.90;;;;;;5023335;28;20061;-78
2021/06/27 07:57:56;;;;;;;13.10;7.55;;;23.20;99.90;;;;;;5035941;28;20509;-78
2021/06/27 08:00:23;;;;;;;14.10;7.40;;;23.30;99.90;;;;;;5019985;28;20030;-77
2021/06/27 08:02:50;;;;;;;10.23;6.65;;;23.30;99.90;;;;;;5037787;28;20024;-78
2021/06/27 08:05:16;;;;;;;12.05;7.63;;;23.50;99.90;;;;;;5035166;28;20516;-77
2021/06/27 08:07:42;;;;;;;11.77;7.57;;;23.60;99.90;;;;;;5036037;28;20026;-78
2021/06/27 08:10:09;;;;;;;12.30;5.97;;;23.70;99.90;;;;;;5036241;28;20026;-78
2021/06/27 08:12:36;;;;;;;12.80;6.17;;;23.80;99.90;;;;;;5035338;28;20423;-77
2021/06/27 08:15:04;;;;;;;13.70;6.30;;;23.90;99.90;;;;;;5016608;28;20481;-77
2021/06/27 08:17:30;;;;;;;12.32;5.80;;;23.90;99.90;;;;;;5020762;28;20028;-78
2021/06/27 08:19:55;;;;;;;15.02;7.03;;;24.10;99.90;;;;;;5036219;28;20023;-77
2021/06/27 08:22:21;;;;;;;11.80;6.07;;;24.10;99.90;;;;;;5037290;28;20112;-76
2021/06/27 08:24:47;;;;;;;10.93;6.15;;;24.20;99.90;;;;;;5052568;28;20128;-76
2021/06/27 08:27:13;;;;;;;9.80;6.07;;;24.10;99.90;;;;;;5033846;28;20033;-76
2021/06/27 08:29:40;;;;;;;11.10;6.40;;;24.20;99.90;;;;;;5037834;28;20029;-76
2021/06/27 08:32:06;;;;;;;12.07;6.68;;;24.20;99.90;;;;;;5049970;28;20079;-76
2021/06/27 08:34:32;;;;;;;9.95;6.22;;;24.20;99.90;;;;;;5054062;28;20528;-75
2021/06/27 08:36:57;;;;;;;12.15;6.13;;;24.30;99.90;;;;;;5040476;28;20025;-76
2021/06/27 08:39:23;;;;;;;10.13;6.57;;;24.40;99.90;;;;;;5050718;28;20032;-76
2021/06/27 08:41:49;;;;;;;9.57;5.70;;;24.50;99.90;;;;;;5053500;28;20024;-76
2021/06/27 08:44:15;;;;;;;10.45;6.53;;;24.60;99.80;;;;;;5053775;28;20013;-76
2021/06/27 08:46:42;;;;;;;9.25;5.47;;;24.70;99.40;;;;;;5019798;28;20029;-76
2021/06/27 08:49:09;;;;;;;9.75;5.80;;;24.80;99.00;;;;;;5038389;28;20036;-76
2021/06/27 08:51:39;;;;;;;8.67;5.73;;;24.90;98.20;;;;;;5035661;28;20074;-76
2021/06/27 08:54:05;;;;;;;10.60;5.57;;;24.90;98.80;;;;;;5044812;28;20033;-76
2021/06/27 08:56:30;;;;;;;10.55;5.80;;;24.90;98.10;;;;;;5033378;28;20490;-76
2021/06/27 08:58:56;;;;;;;11.13;5.97;;;25.10;98.20;;;;;;5041332;28;20056;-76
2021/06/27 09:01:22;;;;;;;10.88;5.68;;;25.20;98.20;;;;;;5040417;28;20043;-76
2021/06/27 09:03:50;;;;;;;10.35;6.10;;;25.20;98.20;;;;;;5033909;28;20056;-76
2021/06/27 09:06:33;;;;;;;8.30;5.20;;;25.30;98.20;;;;;;5045970;28;20389;-76
2021/06/27 09:09:21;;;;;;;10.13;5.75;;;25.30;97.00;;;;;;5053825;28;20488;-76
2021/06/27 09:12:05;;;;;;;7.32;4.80;;;25.40;97.10;;;;;;5036090;28;20025;-76
2021/06/27 09:14:36;;;;;;;8.50;5.60;;;25.40;97.40;;;;;;5036082;28;20051;-76
2021/06/27 09:17:14;;;;;;;10.90;6.18;;;25.60;97.70;;;;;;5053930;28;20100;-76
2021/06/27 09:19:53;;;;;;;10.43;5.88;;;25.70;97.30;;;;;;5036025;28;20060;-76
2021/06/27 09:22:21;;;;;;;7.72;5.07;;;25.80;96.50;;;;;;5036020;28;20017;-76
2021/06/27 09:24:53;;;;;;;8.02;5.30;;;26.00;96.30;;;;;;5054295;28;20021;-76
2021/06/27 09:27:24;;;;;;;8.02;5.28;;;26.00;96.00;;;;;;5053580;28;20013;-76
2021/06/27 09:29:51;;;;;;;11.10;5.95;;;26.10;95.80;;;;;;5035817;28;20402;-76
2021/06/27 09:32:18;;;;;;;8.25;5.20;;;26.20;95.00;;;;;;5053575;28;20022;-76
2021/06/27 09:34:44;;;;;;;9.55;6.03;;;26.30;94.40;;;;;;5054274;28;20024;-76
2021/06/27 09:37:13;;;;;;;10.65;5.35;;;26.40;94.40;;;;;;5032663;28;20119;-76
2021/06/27 09:40:01;;;;;;;;;;;26.50;93.70;;;;;;5034208;28;20052;-76
2021/06/27 09:42:31;;;;;;;8.55;4.57;;;26.60;93.70;;;;;;5033246;28;20399;-77
2021/06/27 09:45:04;;;;;;;9.43;4.55;;;26.60;92.10;;;;;;5033248;28;20501;-77
2021/06/27 09:47:33;;;;;;;9.35;5.30;;;26.80;92.20;;;;;;5033930;28;20453;-77
2021/06/27 09:49:59;;;;;;;12.02;4.35;;;26.90;92.10;;;;;;5033174;28;20101;-78
2021/06/27 09:52:39;;;;;;;6.90;4.93;;;27.10;92.20;;;;;;5016161;28;20041;-78
2021/06/27 09:55:13;;;;;;;6.55;3.65;;;27.30;91.90;;;;;;5034008;28;20108;-78
2021/06/27 09:57:40;;;;;;;7.45;4.22;;;27.40;91.90;;;;;;5019694;28;20029;-78
2021/06/27 10:00:32;;;;;;;6.03;4.07;;;27.60;90.60;;;;;;5037815;28;20025;-78
2021/06/27 10:03:02;;;;;;;7.35;4.57;;;27.70;91.20;;;;;;5021151;28;20025;-78
2021/06/27 10:05:28;;;;;;;8.23;3.78;;;27.70;90.20;;;;;;5038510;28;20024;-78
2021/06/27 10:07:55;;;;;;;8.07;3.55;;;27.70;87.90;;;;;;5045955;28;20028;-77
2021/06/27 10:10:21;;;;;;;4.78;3.28;;;27.70;85.80;;;;;;5038568;28;20430;-77
2021/06/27 10:12:47;;;;;;;7.35;3.45;;;27.80;85.70;;;;;;5056655;28;20493;-77
2021/06/27 10:15:18;;;;;;;4.38;3.25;;;27.90;83.00;;;;;;5057324;28;20049;-81
2021/06/27 10:17:48;;;;;;;8.40;4.38;;;27.90;83.50;;;;;;5049372;28;20116;-80
2021/06/27 10:20:16;;;;;;;7.45;3.78;;;27.90;84.60;;;;;;5037426;28;20644;-78
2021/06/27 10:22:44;;;;;;;5.32;4.03;;;28.10;84.90;;;;;;5036945;28;20459;-76
2021/06/27 10:25:14;;;;;;;4.97;3.35;;;28.20;82.90;;;;;;5054778;28;20097;-77
2021/06/27 10:27:40;;;;;;;6.30;3.90;;;28.30;81.60;;;;;;5038248;28;20053;-76
2021/06/27 10:30:08;;;;;;;6.03;3.65;;;28.30;79.60;;;;;;5056591;28;20398;-76
2021/06/27 10:32:40;;;;;;;5.40;3.13;;;28.50;78.90;;;;;;5055970;28;20035;-76
2021/06/27 10:35:12;;;;;;;5.95;3.67;;;28.70;77.70;;;;;;5056002;28;20086;-77
2021/06/27 10:37:41;;;;;;;3.95;3.00;;;29.00;78.90;;;;;;5055090;28;20522;-76
2021/06/27 10:40:10;;;;;;;4.25;2.72;;;29.30;74.50;;;;;;5056232;28;20056;-77
2021/06/27 10:42:54;;;;;;;4.18;2.58;;;29.40;73.00;;;;;;5029532;28;20024;-76
2021/06/27 10:45:41;;;;;;;5.15;2.78;;;29.50;72.30;;;;;;5035844;28;20024;-77
2021/06/27 10:48:32;;;;;;;2.85;2.42;;;29.60;68.70;;;;;;5026974;28;20389;-77
2021/06/27 10:51:03;;;;;;;3.42;2.53;;;29.40;69.00;;;;;;5055552;28;20025;-77
2021/06/27 10:53:28;;;;;;;2.83;2.33;;;29.40;67.10;;;;;;5026047;28;20499;-76
2021/06/27 10:55:58;;;;;;;4.40;2.50;;;29.30;71.30;;;;;;5017890;28;20163;-77
2021/06/27 10:58:43;;;;;;;3.53;2.55;;;29.40;68.70;;;;;;5037601;28;20029;-76
2021/06/27 11:01:12;;;;;;;3.75;2.35;;;29.70;67.00;;;;;;5018502;28;20524;-80
2021/06/27 11:03:45;;;;;;;4.28;2.85;;;29.90;67.20;;;;;;5019787;28;20501;-78
2021/06/27 11:06:17;;;;;;;3.30;2.28;;;30.30;64.70;;;;;;5017987;28;20490;-76
2021/06/27 11:08:48;;;;;;;3.10;2.15;;;30.50;65.00;;;;;;5052579;28;20371;-76
2021/06/27 11:11:20;;;;;;;4.93;2.40;;;30.60;63.00;;;;;;5055697;28;20032;-76
2021/06/27 11:14:11;;;;;;;3.55;2.08;;;30.60;61.60;;;;;;5037706;28;20043;-76
2021/06/27 11:16:55;;;;;;;3.28;1.48;;;30.60;61.50;;;;;;5055206;28;20036;-77
2021/06/27 11:19:26;;;;;;;2.05;1.40;;;30.80;59.90;;;;;;5035431;28;20040;-76
2021/06/27 11:22:17;;;;;;;2.55;2.00;;;31.10;57.80;;;;;;5035138;28;20103;-75
2021/06/27 11:24:44;;;;;;;2.47;1.65;;;31.40;59.10;;;;;;5035065;28;20086;-76
2021/06/27 11:27:34;;;;;;;2.13;1.63;;;31.70;61.20;;;;;;5036778;28;20033;-77
2021/06/27 11:30:29;;;;;;;3.03;1.40;;;31.70;53.80;;;;;;5035043;28;20036;-76
2021/06/27 11:32:55;;;;;;;2.10;1.63;;;31.50;57.10;;;;;;5030261;28;20048;-74
2021/06/27 11:35:43;;;;;;;1.77;1.48;;;31.60;55.50;;;;;;5035052;28;20048;-74
2021/06/27 11:38:38;;;;;;;2.15;1.55;;;31.20;53.10;;;;;;5034725;28;20071;-74
2021/06/27 11:41:37;;;;;;;3.65;1.00;;;31.10;56.10;;;;;;5018359;28;20026;-74
2021/06/27 11:44:22;;;;;;;2.85;1.20;;;31.30;55.60;;;;;;5034852;28;20022;-74
2021/06/27 11:46:48;;;;;;;2.72;1.00;;;31.40;54.60;;;;;;5017190;28;20056;-74
2021/06/27 11:49:16;;;;;;;1.77;1.38;;;31.00;54.10;;;;;;5016824;28;20418;-74
2021/06/27 11:51:47;;;;;;;1.45;1.33;;;30.60;55.20;;;;;;5034657;28;20083;-74
2021/06/27 11:54:29;;;;;;;2.40;1.33;;;30.40;56.30;;;;;;5034813;28;20060;-74
2021/06/27 11:57:06;;;;;;;3.65;1.10;;;30.50;56.20;;;;;;5034888;28;20060;-74
2021/06/27 11:59:36;;;;;;;1.83;1.27;;;30.60;55.90;;;;;;5034520;28;20368;-75
2021/06/27 12:02:06;;;;;;;2.83;1.88;;;31.00;57.30;;;;;;5034601;28;20444;-76
2021/06/27 12:04:49;;;;;;;1.98;1.52;;;31.40;57.00;;;;;;5016573;28;20018;-76
2021/06/27 12:07:31;;;;;;;1.73;1.63;;;32.00;54.60;;;;;;5016701;28;20021;-76
2021/06/27 12:10:00;;;;;;;3.15;1.67;;;32.50;53.70;;;;;;5016540;28;20025;-76
2021/06/27 12:13:02;;;;;;;1.50;0.90;;;32.80;51.00;;;;;;5016387;28;20021;-76
2021/06/27 12:15:31;;;;;;;3.28;1.67;;;32.60;51.00;;;;;;5016719;28;20071;-76
2021/06/27 12:18:14;;;;;;;1.77;1.52;;;32.50;51.90;;;;;;5034095;28;20037;-76
2021/06/27 12:20:46;;;;;;;1.35;1.25;;;32.50;52.50;;;;;;5016330;28;20034;-76
2021/06/27 12:23:17;;;;;;;1.83;1.48;;;32.80;51.70;;;;;;5016431;28;20049;-77
2021/06/27 12:25:51;;;;;;;1.00;1.00;;;32.90;49.80;;;;;;5034725;28;20466;-77
2021/06/27 12:28:29;;;;;;;1.50;1.10;;;33.00;50.80;;;;;;5016282;28;20026;-76
2021/06/27 12:30:56;;;;;;;1.25;0.90;;;33.10;49.40;;;;;;5034035;28;20021;-76
2021/06/27 12:33:32;;;;;;;1.17;1.02;;;32.90;48.40;;;;;;5033953;28;20026;-76
2021/06/27 12:36:11;;;;;;;1.77;1.25;;;32.70;49.50;;;;;;5033888;28;20027;-76
2021/06/27 12:38:38;;;;;;;2.58;1.35;;;32.60;49.60;;;;;;5034010;28;20359;-76
2021/06/27 12:41:06;;;;;;;1.48;1.38;;;32.40;49.00;;;;;;5016011;28;20022;-76
2021/06/27 12:43:37;;;;;;;0.88;0.73;;;31.80;50.10;;;;;;5034254;28;20075;-76